Time;durP1;ratioP1;P1;durP2;ratioP2;P2;SDS_P1;SDS_P2;PMS_P1;PMS_P2;Temp;Humidity;BMP_temperature;BMP_pressure;BME280_temperature;BME280_humidity;BME280_pressure;Samples;Min_cycle;Max_cycle;Signal;HPM_P1;HPM_P2
2022/05/05 00:02:02;;;;;;;;;;;;;;;;;;8369992;28;27721;-58
2022/05/05 00:06:02;;;;;;;;;;;;;;;;;;8374442;28;27273;-57
2022/05/05 00:14:23;;;;;;;;;;;;;;;;;;8371930;28;27947;-58
2022/05/05 00:14:31;;;;;;;;;;;;;;;;;;8371755;28;28010;-58
2022/05/05 00:18:31;;;;;;;;;;;;;;;;;;8368933;28;27470;-58
2022/05/05 00:22:32;;;;;;;;;;;;;;;;;;8377164;28;27488;-58
2022/05/05 00:26:32;;;;;;;;;;;;;;;;;;8374863;28;28083;-58
2022/05/05 00:30:32;;;;;;;;;;;;;;;;;;8387857;28;29398;-59
2022/05/05 00:34:32;;;;;;;;;;;;;;;;;;8369860;28;27821;-59
2022/05/05 00:38:32;;;;;;;;;;;;;;;;;;8369910;28;28471;-58
2022/05/05 00:42:33;;;;;;;;;;;;;;;;;;8373489;28;28539;-58
2022/05/05 00:46:33;;;;;;;;;;;;;;;;;;8373251;28;28650;-58
2022/05/05 00:50:33;;;;;;;;;;;;;;;;;;8373439;28;27317;-58
2022/05/05 00:54:33;;;;;;;;;;;;;;;;;;8369995;28;27829;-58
2022/05/05 00:58:33;;;;;;;;;;;;;;;;;;8374888;28;28160;-57
2022/05/05 01:02:35;;;;;;;;;;;;;;;;;;8375346;28;28610;-59
2022/05/05 01:06:35;;;;;;;;;;;;;;;;;;8370426;28;27537;-56
2022/05/05 01:10:35;;;;;;;;;;;;;;;;;;8369525;28;28039;-58
2022/05/05 01:14:35;;;;;;;;;;;;;;;;;;8372703;28;28043;-58
2022/05/05 01:18:35;;;;;;;;;;;;;;;;;;8372839;28;27489;-60
2022/05/05 01:22:35;;;;;;;;;;;;;;;;;;8372228;28;27471;-58
2022/05/05 01:30:54;;;;;;;;;;;;;;;;;;8369802;28;27714;-58
2022/05/05 01:34:54;;;;;;;;;;;;;;;;;;8375708;28;27415;-58
2022/05/05 01:38:55;;;;;;;;;;;;;;;;;;8374793;28;27945;-58
2022/05/05 01:42:55;;;;;;;;;;;;;;;;;;8368917;28;27778;-58
2022/05/05 01:46:55;;;;;;;;;;;;;;;;;;8372912;28;28208;-58
2022/05/05 01:50:55;;;;;;;;;;;;;;;;;;8386604;28;27673;-56
2022/05/05 01:54:55;;;;;;;;;;;;;;;;;;8387727;27;27783;-58
2022/05/05 01:58:55;;;;;;;;;;;;;;;;;;8371143;28;27222;-59
2022/05/05 02:02:55;;;;;;;;;;;;;;;;;;8372179;28;28140;-58
2022/05/05 02:06:55;;;;;;;;;;;;;;;;;;8370591;28;27572;-58
2022/05/05 02:10:56;;;;;;;;;;;;;;;;;;8371781;28;27846;-58
2022/05/05 02:14:56;;;;;;;;;;;;;;;;;;8368644;28;27941;-58
2022/05/05 02:18:56;;;;;;;;;;;;;;;;;;8384932;28;27852;-58
2022/05/05 02:22:56;;;;;;;;;;;;;;;;;;8384476;28;28892;-57
2022/05/05 02:26:56;;;;;;;;;;;;;;;;;;8378107;28;28310;-58
2022/05/05 02:30:56;;;;;;;;;;;;;;;;;;8371125;28;27759;-59
2022/05/05 02:34:56;;;;;;;;;;;;;;;;;;8376562;28;27554;-58
2022/05/05 02:38:56;;;;;;;;;;;;;;;;;;8368469;28;27750;-58
2022/05/05 02:42:56;;;;;;;;;;;;;;;;;;8371561;28;27555;-58
2022/05/05 02:46:58;;;;;;;;;;;;;;;;;;8370599;28;27580;-58
2022/05/05 02:50:58;;;;;;;;;;;;;;;;;;8366469;28;27569;-58
2022/05/05 02:54:58;;;;;;;;;;;;;;;;;;8370802;28;28381;-60
2022/05/05 02:58:58;;;;;;;;;;;;;;;;;;8369351;28;27585;-58
2022/05/05 03:02:58;;;;;;;;;;;;;;;;;;8370145;28;28203;-58
2022/05/05 03:06:58;;;;;;;;;;;;;;;;;;8371640;28;27469;-58
2022/05/05 03:10:58;;;;;;;;;;;;;;;;;;8369407;28;28235;-58
2022/05/05 03:14:59;;;;;;;;;;;;;;;;;;8385813;28;28198;-57
2022/05/05 03:18:59;;;;;;;;;;;;;;;;;;8366811;28;27353;-58
2022/05/05 03:22:59;;;;;;;;;;;;;;;;;;8367047;28;27916;-58
2022/05/05 03:27:00;;;;;;;;;;;;;;;;;;8369213;28;27479;-58
2022/05/05 03:31:00;;;;;;;;;;;;;;;;;;8370239;28;27547;-58
2022/05/05 03:35:00;;;;;;;;;;;;;;;;;;8370261;28;28000;-58
2022/05/05 03:39:00;;;;;;;;;;;;;;;;;;8368269;28;27208;-58
2022/05/05 03:43:01;;;;;;;;;;;;;;;;;;8370564;28;28083;-58
2022/05/05 03:47:01;;;;;;;;;;;;;;;;;;8372120;28;28221;-58
2022/05/05 03:51:01;;;;;;;;;;;;;;;;;;8364679;28;28029;-57
2022/05/05 03:55:01;;;;;;;;;;;;;;;;;;8371934;28;27488;-58
2022/05/05 03:59:02;;;;;;;;;;;;;;;;;;8368635;28;27213;-57
2022/05/05 04:07:20;;;;;;;;;;;;;;;;;;8365925;28;27368;-58
2022/05/05 04:11:21;;;;;;;;;;;;;;;;;;8364669;28;27298;-58
2022/05/05 04:15:21;;;;;;;;;;;;;;;;;;8366854;28;27999;-58
2022/05/05 04:19:21;;;;;;;;;;;;;;;;;;8368538;28;28484;-58
2022/05/05 04:23:21;;;;;;;;;;;;;;;;;;8363395;28;27196;-58
2022/05/05 04:27:21;;;;;;;;;;;;;;;;;;8366616;28;27224;-58
2022/05/05 04:31:22;;;;;;;;;;;;;;;;;;8370249;28;28074;-58
2022/05/05 04:35:23;;;;;;;;;;;;;;;;;;8377251;28;27288;-58
2022/05/05 04:39:23;;;;;;;;;;;;;;;;;;8371637;28;27810;-58
2022/05/05 04:43:23;;;;;;;;;;;;;;;;;;8373685;28;28157;-58
2022/05/05 04:47:23;;;;;;;;;;;;;;;;;;8373229;28;27446;-58
2022/05/05 04:51:24;;;;;;;;;;;;;;;;;;8373306;28;27800;-57
2022/05/05 04:55:24;;;;;;;;;;;;;;;;;;8376553;28;27711;-59
2022/05/05 04:59:24;;;;;;;;;;;;;;;;;;8369944;28;28173;-57
2022/05/05 05:03:34;;;;;;;;;;;;;;;;;;8373169;28;28149;-58
2022/05/05 05:07:34;;;;;;;;;;;;;;;;;;8376400;28;27975;-54
2022/05/05 05:11:34;;;;;;;;;;;;;;;;;;8373809;28;27765;-58
2022/05/05 05:15:35;;;;;;;;;;;;;;;;;;8370260;28;27991;-58
2022/05/05 05:19:35;;;;;;;;;;;;;;;;;;8372806;28;27987;-57
2022/05/05 05:23:35;;;;;;;;;;;;;;;;;;8371733;28;27997;-58
2022/05/05 05:27:35;;;;;;;;;;;;;;;;;;8368938;28;27910;-58
2022/05/05 05:31:35;;;;;;;;;;;;;;;;;;8385719;28;28680;-57
2022/05/05 05:35:35;;;;;;;;;;;;;;;;;;8372780;28;27193;-58
2022/05/05 05:39:36;;;;;;;;;;;;;;;;;;8369716;28;27267;-58
2022/05/05 05:43:36;;;;;;;;;;;;;;;;;;8373743;28;27644;-58
2022/05/05 05:47:36;;;;;;;;;;;;;;;;;;8387365;28;27619;-57
2022/05/05 05:51:36;;;;;;;;;;;;;;;;;;8372942;28;28749;-53
2022/05/05 05:55:36;;;;;;;;;;;;;;;;;;8374697;28;27587;-57
2022/05/05 05:59:36;;;;;;;;;;;;;;;;;;8369897;28;27596;-56
2022/05/05 06:03:56;;;;;;;;;;;;;;;;;;8386463;27;27537;-58
2022/05/05 06:07:56;;;;;;;;;;;;;;;;;;8371758;28;27246;-57
2022/05/05 06:11:56;;;;;;;;;;;;;;;;;;8369253;28;28072;-58
2022/05/05 06:15:57;;;;;;;;;;;;;;;;;;8386930;27;30023;-58
2022/05/05 06:19:57;;;;;;;;;;;;;;;;;;8370985;28;27184;-58
2022/05/05 06:23:57;;;;;;;;;;;;;;;;;;8370481;28;28536;-57
2022/05/05 06:27:57;;;;;;;;;;;;;;;;;;8371804;28;27824;-58
2022/05/05 06:31:57;;;;;;;;;;;;;;;;;;8370021;28;27453;-55
2022/05/05 06:35:57;;;;;;;;;;;;;;;;;;8372737;28;28070;-58
2022/05/05 06:39:57;;;;;;;;;;;;;;;;;;8368991;28;27827;-58
2022/05/05 06:43:57;;;;;;;;;;;;;;;;;;8368538;28;27587;-59
2022/05/05 06:47:58;;;;;;;;;;;;;;;;;;8368876;28;27579;-57
2022/05/05 06:51:59;;;;;;;;;;;;;;;;;;8367771;28;27779;-57
2022/05/05 06:56:00;;;;;;;;;;;;;;;;;;8372323;28;27935;-58
2022/05/05 07:00:00;;;;;;;;;;;;;;;;;;8371289;28;27239;-58
2022/05/05 07:08:19;;;;;;;;;;;;;;;;;;8362413;28;28879;-58
2022/05/05 07:12:19;;;;;;;;;;;;;;;;;;8363502;28;27555;-58
2022/05/05 07:16:20;;;;;;;;;;;;;;;;;;8366813;28;28617;-58
2022/05/05 07:20:20;;;;;;;;;;;;;;;;;;8366674;28;28020;-57
2022/05/05 07:24:20;;;;;;;;;;;;;;;;;;8362507;28;28213;-57
2022/05/05 07:28:20;;;;;;;;;;;;;;;;;;8364611;28;27630;-57
2022/05/05 07:32:20;;;;;;;;;;;;;;;;;;8361866;28;27423;-58
2022/05/05 07:36:20;;;;;;;;;;;;;;;;;;8366475;28;28130;-58
2022/05/05 07:40:21;;;;;;;;;;;;;;;;;;8361934;28;27895;-58
2022/05/05 07:44:21;;;;;;;;;;;;;;;;;;8366273;28;28081;-59
2022/05/05 07:48:21;;;;;;;;;;;;;;;;;;8359521;28;27416;-58
2022/05/05 07:52:21;;;;;;;;;;;;;;;;;;8360652;28;28552;-58
2022/05/05 07:56:21;;;;;;;;;;;;;;;;;;8366972;28;27610;-58
2022/05/05 08:00:22;;;;;;;;;;;;;;;;;;8367343;28;27636;-57
2022/05/05 08:04:22;;;;;;;;;;;;;;;;;;8368051;28;27301;-58
2022/05/05 08:08:22;;;;;;;;;;;;;;;;;;8387537;28;28842;-60
2022/05/05 08:12:22;;;;;;;;;;;;;;;;;;8379432;28;28267;-58
2022/05/05 08:16:23;;;;;;;;;;;;;;;;;;8375169;28;27521;-56
2022/05/05 08:20:23;;;;;;;;;;;;;;;;;;8374627;28;27777;-57
2022/05/05 08:28:42;;;;;;;;;;;;;;;;;;8372346;28;27802;-58
2022/05/05 08:32:42;;;;;;;;;;;;;;;;;;8370751;28;28195;-58
2022/05/05 08:36:42;;;;;;;;;;;;;;;;;;8373233;28;27813;-58
2022/05/05 08:40:42;;;;;;;;;;;;;;;;;;8369894;28;28065;-57
2022/05/05 08:44:42;;;;;;;;;;;;;;;;;;8370089;28;27883;-58
2022/05/05 08:48:43;;;;;;;;;;;;;;;;;;8371717;28;27650;-58
2022/05/05 08:52:44;;;;;;;;;;;;;;;;;;8372765;28;27839;-58
2022/05/05 08:56:45;;;;;;;;;;;;;;;;;;8372368;28;27581;-56
2022/05/05 09:00:45;;;;;;;;;;;;;;;;;;8371799;28;27804;-58
2022/05/05 09:04:46;;;;;;;;;;;;;;;;;;8369387;28;27704;-58
2022/05/05 09:08:46;;;;;;;;;;;;;;;;;;8366056;28;27728;-58
2022/05/05 09:12:46;;;;;;;;;;;;;;;;;;8372336;28;27580;-57
2022/05/05 09:16:46;;;;;;;;;;;;;;;;;;8366323;28;27989;-58
2022/05/05 09:20:46;;;;;;;;;;;;;;;;;;8369033;28;27723;-58
2022/05/05 09:24:49;;;;;;;;;;;;;;;;;;8353128;28;28012;-58
2022/05/05 09:28:49;;;;;;;;;;;;;;;;;;8359091;28;28450;-57
2022/05/05 09:32:49;;;;;;;;;;;;;;;;;;8378334;28;29832;-57
2022/05/05 09:36:49;;;;;;;;;;;;;;;;;;8366661;28;27570;-58
2022/05/05 09:40:50;;;;;;;;;;;;;;;;;;8360109;28;27679;-58
2022/05/05 09:44:50;;;;;;;;;;;;;;;;;;8366242;28;27362;-60
2022/05/05 09:48:50;;;;;;;;;;;;;;;;;;8365534;28;27362;-57
2022/05/05 10:01:31;;;;;;;;;;;;;;;;;;8364021;28;28616;-58
2022/05/05 10:05:31;;;;;;;;;;;;;;;;;;8366584;28;27533;-57
2022/05/05 10:09:32;;;;;;;;;;;;;;;;;;8359497;28;28006;-57
2022/05/05 10:13:32;;;;;;;;;;;;;;;;;;8360984;28;28573;-57
2022/05/05 10:17:32;;;;;;;;;;;;;;;;;;8364612;28;27735;-56
2022/05/05 10:21:33;;;;;;;;;;;;;;;;;;8363366;28;28397;-60
2022/05/05 10:25:33;;;;;;;;;;;;;;;;;;8365851;28;27478;-59
2022/05/05 10:29:33;;;;;;;;;;;;;;;;;;8364609;28;28086;-58
2022/05/05 10:33:33;;;;;;;;;;;;;;;;;;8365973;28;27718;-58
2022/05/05 10:37:34;;;;;;;;;;;;;;;;;;8367358;28;27484;-57
2022/05/05 10:41:34;;;;;;;;;;;;;;;;;;8378292;28;27749;-57
2022/05/05 10:45:35;;;;;;;;;;;;;;;;;;8367951;28;27595;-58
2022/05/05 10:49:39;;;;;;;;;;;;;;;;;;8370819;28;27315;-58
2022/05/05 10:53:40;;;;;;;;;;;;;;;;;;8367857;28;27356;-58
2022/05/05 10:57:40;;;;;;;;;;;;;;;;;;8370333;28;27850;-57
2022/05/05 11:01:40;;;;;;;;;;;;;;;;;;8371465;28;28421;-57
2022/05/05 11:05:40;;;;;;;;;;;;;;;;;;8369682;28;27598;-58
2022/05/05 11:09:40;;;;;;;;;;;;;;;;;;8366476;28;28125;-58
2022/05/05 11:13:41;;;;;;;;;;;;;;;;;;8362469;28;27750;-58
2022/05/05 11:22:00;;;;;;;;;;;;;;;;;;8364888;28;28415;-56
2022/05/05 11:26:00;;;;;;;;;;;;;;;;;;8364339;28;28459;-58
2022/05/05 11:30:00;;;;;;;;;;;;;;;;;;8363015;28;28113;-58
2022/05/05 11:34:00;;;;;;;;;;;;;;;;;;8361410;28;27755;-58
2022/05/05 11:38:00;;;;;;;;;;;;;;;;;;8361311;28;27771;-58
2022/05/05 11:42:01;;;;;;;;;;;;;;;;;;8370185;28;27899;-58
2022/05/05 11:46:01;;;;;;;;;;;;;;;;;;8368426;28;27825;-59
2022/05/05 11:50:01;;;;;;;;;;;;;;;;;;8367693;28;27740;-58
2022/05/05 11:54:01;;;;;;;;;;;;;;;;;;8366922;28;27779;-58
2022/05/05 11:58:01;;;;;;;;;;;;;;;;;;8368288;28;27241;-58
2022/05/05 12:02:01;;;;;;;;;;;;;;;;;;8368102;28;28071;-59
2022/05/05 12:06:01;;;;;;;;;;;;;;;;;;8370580;28;27419;-59
2022/05/05 12:10:02;;;;;;;;;;;;;;;;;;8367161;28;27582;-58
2022/05/05 12:14:06;;;;;;;;;;;;;;;;;;8370398;28;27782;-58
2022/05/05 12:18:07;;;;;;;;;;;;;;;;;;8367907;28;27782;-58
2022/05/05 12:22:08;;;;;;;;;;;;;;;;;;8371852;28;28120;-58
2022/05/05 12:26:08;;;;;;;;;;;;;;;;;;8372589;28;29074;-58
2022/05/05 12:30:08;;;;;;;;;;;;;;;;;;8369500;28;27444;-53
2022/05/05 12:34:08;;;;;;;;;;;;;;;;;;8367813;28;28399;-57
2022/05/05 12:38:08;;;;;;;;;;;;;;;;;;8382492;28;28290;-53
2022/05/05 12:42:08;;;;;;;;;;;;;;;;;;8367901;28;27910;-58
2022/05/05 12:46:08;;;;;;;;;;;;;;;;;;8369639;28;28214;-58
2022/05/05 12:50:08;;;;;;;;;;;;;;;;;;8366142;28;28145;-58
2022/05/05 13:02:46;;;;;;;;;;;;;;;;;;8366012;28;27369;-58
2022/05/05 13:06:47;;;;;;;;;;;;;;;;;;8368455;28;28091;-58
2022/05/05 13:10:48;;;;;;;;;;;;;;;;;;8368013;28;28421;-56
2022/05/05 13:14:48;;;;;;;;;;;;;;;;;;8367792;28;28208;-58
2022/05/05 13:18:48;;;;;;;;;;;;;;;;;;8382399;27;27890;-55
2022/05/05 13:22:48;;;;;;;;;;;;;;;;;;8371612;28;28014;-58
2022/05/05 13:26:48;;;;;;;;;;;;;;;;;;8368678;28;27531;-58
2022/05/05 13:30:48;;;;;;;;;;;;;;;;;;8380097;28;29793;-57
2022/05/05 13:34:48;;;;;;;;;;;;;;;;;;8359513;28;27976;-55
2022/05/05 13:38:49;;;;;;;;;;;;;;;;;;8369021;28;27499;-58
2022/05/05 13:42:49;;;;;;;;;;;;;;;;;;8365515;28;27608;-58
2022/05/05 13:46:50;;;;;;;;;;;;;;;;;;8365384;28;28999;-58
2022/05/05 13:50:50;;;;;;;;;;;;;;;;;;8369123;28;28463;-58
2022/05/05 13:54:51;;;;;;;;;;;;;;;;;;8361385;28;28511;-58
2022/05/05 13:58:51;;;;;;;;;;;;;;;;;;8364922;28;28415;-58
2022/05/05 14:02:51;;;;;;;;;;;;;;;;;;8363656;28;27332;-60
2022/05/05 14:06:51;;;;;;;;;;;;;;;;;;8380996;28;28425;-58
2022/05/05 14:15:11;;;;;;;;;;;;;;;;;;8365625;28;28806;-58
2022/05/05 14:19:11;;;;;;;;;;;;;;;;;;8363811;28;28712;-58
2022/05/05 14:23:11;;;;;;;;;;;;;;;;;;8363280;28;27744;-58
2022/05/05 14:27:11;;;;;;;;;;;;;;;;;;8372230;28;27528;-58
2022/05/05 14:31:11;;;;;;;;;;;;;;;;;;8368941;28;27504;-58
2022/05/05 14:35:11;;;;;;;;;;;;;;;;;;8370077;28;27811;-55
2022/05/05 14:39:12;;;;;;;;;;;;;;;;;;8357859;28;28024;-58
2022/05/05 14:43:12;;;;;;;;;;;;;;;;;;8368781;28;27703;-58
2022/05/05 14:47:12;;;;;;;;;;;;;;;;;;8373428;28;28099;-58
2022/05/05 14:51:12;;;;;;;;;;;;;;;;;;8373639;28;27521;-58
2022/05/05 14:55:12;;;;;;;;;;;;;;;;;;8373423;28;27445;-58
2022/05/05 14:59:12;;;;;;;;;;;;;;;;;;8366173;28;27371;-58
2022/05/05 15:03:12;;;;;;;;;;;;;;;;;;8385700;28;28997;-58
2022/05/05 15:07:12;;;;;;;;;;;;;;;;;;8368045;28;28476;-58
2022/05/05 15:11:12;;;;;;;;;;;;;;;;;;8384900;27;27626;-58
2022/05/05 15:15:13;;;;;;;;;;;;;;;;;;8367516;28;28236;-58
2022/05/05 15:19:13;;;;;;;;;;;;;;;;;;8366718;28;27682;-58
2022/05/05 15:23:13;;;;;;;;;;;;;;;;;;8367557;28;27711;-58
2022/05/05 15:27:13;;;;;;;;;;;;;;;;;;8365170;28;28489;-58
2022/05/05 15:31:13;;;;;;;;;;;;;;;;;;8383787;28;27384;-59
2022/05/05 15:35:13;;;;;;;;;;;;;;;;;;8368688;28;27219;-58
2022/05/05 15:39:14;;;;;;;;;;;;;;;;;;8366087;28;27907;-58
2022/05/05 15:43:14;;;;;;;;;;;;;;;;;;8366977;28;28579;-58
2022/05/05 15:47:14;;;;;;;;;;;;;;;;;;8370796;28;27704;-58
2022/05/05 15:51:16;;;;;;;;;;;;;;;;;;8362854;28;28001;-59
2022/05/05 15:55:16;;;;;;;;;;;;;;;;;;8367855;28;28635;-60
2022/05/05 15:59:16;;;;;;;;;;;;;;;;;;8366393;28;27216;-58
2022/05/05 16:03:18;;;;;;;;;;;;;;;;;;8367478;28;27317;-58
2022/05/05 16:07:19;;;;;;;;;;;;;;;;;;8369820;28;27439;-58
2022/05/05 16:11:19;;;;;;;;;;;;;;;;;;8362530;28;28135;-58
2022/05/05 16:15:19;;;;;;;;;;;;;;;;;;8364600;28;27474;-58
2022/05/05 16:19:19;;;;;;;;;;;;;;;;;;8377715;28;28177;-59
2022/05/05 16:23:19;;;;;;;;;;;;;;;;;;8362548;28;27451;-58
2022/05/05 16:31:38;;;;;;;;;;;;;;;;;;8371136;28;27921;-57
2022/05/05 16:35:39;;;;;;;;;;;;;;;;;;8374556;28;27773;-57
2022/05/05 16:39:39;;;;;;;;;;;;;;;;;;8366693;28;27565;-57
2022/05/05 16:43:39;;;;;;;;;;;;;;;;;;8371750;28;27969;-56
2022/05/05 16:47:39;;;;;;;;;;;;;;;;;;8370369;28;28022;-58
2022/05/05 16:51:39;;;;;;;;;;;;;;;;;;8365911;28;27796;-58
2022/05/05 16:55:39;;;;;;;;;;;;;;;;;;8371649;28;27724;-58
2022/05/05 16:59:39;;;;;;;;;;;;;;;;;;8386246;28;28345;-59
2022/05/05 17:03:39;;;;;;;;;;;;;;;;;;8386746;27;27584;-58
2022/05/05 17:07:39;;;;;;;;;;;;;;;;;;8374177;28;27245;-58
2022/05/05 17:11:40;;;;;;;;;;;;;;;;;;8370882;28;27227;-58
2022/05/05 17:15:40;;;;;;;;;;;;;;;;;;8372192;28;27570;-58
2022/05/05 17:19:40;;;;;;;;;;;;;;;;;;8370576;28;27929;-55
2022/05/05 17:23:40;;;;;;;;;;;;;;;;;;8372071;28;27643;-59
2022/05/05 17:27:41;;;;;;;;;;;;;;;;;;8369432;28;27520;-58
2022/05/05 17:31:41;;;;;;;;;;;;;;;;;;8373298;28;28161;-60
2022/05/05 17:35:42;;;;;;;;;;;;;;;;;;8372605;28;28111;-58
2022/05/05 17:39:42;;;;;;;;;;;;;;;;;;8372446;28;27410;-58
2022/05/05 17:43:42;;;;;;;;;;;;;;;;;;8387974;28;28221;-58
2022/05/05 17:52:00;;;;;;;;;;;;;;;;;;8372666;28;27561;-58
2022/05/05 17:56:01;;;;;;;;;;;;;;;;;;8371836;28;27944;-56
2022/05/05 18:00:01;;;;;;;;;;;;;;;;;;8372443;28;27700;-58
2022/05/05 18:04:01;;;;;;;;;;;;;;;;;;8371477;28;27850;-58
2022/05/05 18:12:11;;;;;;;;;;;;;;;;;;8384838;22;28404;-58
2022/05/05 18:16:11;;;;;;;;;;;;;;;;;;8312314;28;28582;-57
2022/05/05 18:20:12;;;;;;;;;;;;;;;;;;8307793;28;27594;-57
2022/05/05 18:24:12;;;;;;;;;;;;;;;;;;8312492;28;27860;-58
2022/05/05 18:28:12;;;;;;;;;;;;;;;;;;8321468;28;27954;-58
2022/05/05 18:32:12;;;;;;;;;;;;;;;;;;8310501;28;27918;-54
2022/05/05 18:36:13;;;;;;;;;;;;;;;;;;8309415;28;28071;-58
2022/05/05 18:40:13;;;;;;;;;;;;;;;;;;8307213;28;27460;-58
2022/05/05 18:44:13;;;;;;;;;;;;;;;;;;8309267;28;28243;-58
2022/05/05 18:52:23;;;;;;;;;;;;;;;;;;8609143;23;28729;-58
2022/05/05 18:56:24;;;;;;;;;;;;;;;;;;8303790;28;27588;-58
2022/05/05 19:00:24;;;;;;;;;;;;;;;;;;8306933;28;27360;-56
2022/05/05 19:04:24;;;;;;;;;;;;;;;;;;8307372;28;28247;-58
2022/05/05 19:08:24;;;;;;;;;;;;;;;;;;8302574;28;28200;-58
2022/05/05 19:12:25;;;;;;;;;;;;;;;;;;8326302;28;27786;-58
2022/05/05 19:16:25;;;;;;;;;;;;;;;;;;8306237;28;27807;-58
2022/05/05 19:20:26;;;;;;;;;;;;;;;;;;8309498;28;27248;-56
2022/05/05 19:24:26;;;;;;;;;;;;;;;;;;8302135;28;27770;-58
2022/05/05 19:28:26;;;;;;;;;;;;;;;;;;8301298;28;27841;-57
2022/05/05 19:32:26;;;;;;;;;;;;;;;;;;8298900;28;27519;-61
2022/05/05 19:36:26;;;;;;;;;;;;;;;;;;8304664;28;27636;-58
2022/05/05 19:40:26;;;;;;;;;;;;;;;;;;8302484;28;28066;-54
2022/05/05 19:44:26;;;;;;;;;;;;;;;;;;8305003;28;27661;-58
2022/05/05 19:48:26;;;;;;;;;;;;;;;;;;8318568;28;28328;-57
2022/05/05 19:52:27;;;;;;;;;;;;;;;;;;8313662;28;28221;-53
2022/05/05 20:09:23;;;;;;;;;;;;;;;;;;8305730;28;27472;-56
2022/05/05 20:13:24;;;;;;;;;;;;;;;;;;8311225;28;27582;-56
2022/05/05 20:17:24;;;;;;;;;;;;;;;;;;8311552;28;28274;-56
2022/05/05 20:21:24;;;;;;;;;;;;;;;;;;8306084;28;27623;-58
2022/05/05 20:25:24;;;;;;;;;;;;;;;;;;8305594;28;27766;-56
2022/05/05 20:29:26;;;;;;;;;;;;;;;;;;8305033;28;27226;-58
2022/05/05 20:33:26;;;;;;;;;;;;;;;;;;8318303;28;27919;-57
2022/05/05 20:37:26;;;;;;;;;;;;;;;;;;8305280;28;27906;-58
2022/05/05 20:41:26;;;;;;;;;;;;;;;;;;8304699;28;27198;-58
2022/05/05 20:45:27;;;;;;;;;;;;;;;;;;8311905;28;27187;-58
2022/05/05 20:49:28;;;;;;;;;;;;;;;;;;8303174;28;28068;-57
2022/05/05 20:53:28;;;;;;;;;;;;;;;;;;8305305;28;27326;-58
2022/05/05 20:57:28;;;;;;;;;;;;;;;;;;8302539;28;27525;-54
2022/05/05 21:01:28;;;;;;;;;;;;;;;;;;8303789;28;27337;-58
2022/05/05 21:05:29;;;;;;;;;;;;;;;;;;8303226;28;27446;-55
2022/05/05 21:09:29;;;;;;;;;;;;;;;;;;8305985;28;27822;-58
2022/05/05 21:13:29;;;;;;;;;;;;;;;;;;8309390;28;27409;-59
2022/05/05 21:17:29;;;;;;;;;;;;;;;;;;8305315;28;27382;-58
2022/05/05 21:25:48;;;;;;;;;;;;;;;;;;8303699;28;27857;-57
2022/05/05 21:29:48;;;;;;;;;;;;;;;;;;8303545;28;27986;-58
2022/05/05 21:33:49;;;;;;;;;;;;;;;;;;8307387;28;27515;-57
2022/05/05 21:37:49;;;;;;;;;;;;;;;;;;8307413;28;28121;-58
2022/05/05 21:41:49;;;;;;;;;;;;;;;;;;8305547;28;27566;-58
2022/05/05 21:45:49;;;;;;;;;;;;;;;;;;8305668;28;27701;-58
2022/05/05 21:49:49;;;;;;;;;;;;;;;;;;8304628;28;27714;-58
2022/05/05 21:53:49;;;;;;;;;;;;;;;;;;8299188;28;27251;-55
2022/05/05 21:57:49;;;;;;;;;;;;;;;;;;8302413;28;27587;-58
2022/05/05 22:01:49;;;;;;;;;;;;;;;;;;8302629;28;27737;-58
2022/05/05 22:05:49;;;;;;;;;;;;;;;;;;8303217;28;27501;-57
2022/05/05 22:09:50;;;;;;;;;;;;;;;;;;8306258;28;28028;-58
2022/05/05 22:13:50;;;;;;;;;;;;;;;;;;8304110;28;28455;-58
2022/05/05 22:17:50;;;;;;;;;;;;;;;;;;8304645;28;28683;-59
2022/05/05 22:21:50;;;;;;;;;;;;;;;;;;8325659;28;28515;-58
2022/05/05 22:25:51;;;;;;;;;;;;;;;;;;8308317;28;29161;-58
2022/05/05 22:29:51;;;;;;;;;;;;;;;;;;8301201;28;27277;-58
2022/05/05 22:33:51;;;;;;;;;;;;;;;;;;8302561;28;27712;-55
2022/05/05 22:37:52;;;;;;;;;;;;;;;;;;8298727;28;27859;-58
2022/05/05 22:41:52;;;;;;;;;;;;;;;;;;8294857;28;27979;-58
2022/05/05 22:45:52;;;;;;;;;;;;;;;;;;8297759;28;28077;-58
2022/05/05 22:54:22;;;;;;;;;;;;;;;;;;8309151;28;27728;-58
2022/05/05 22:58:22;;;;;;;;;;;;;;;;;;8297584;28;27258;-53
2022/05/05 23:02:22;;;;;;;;;;;;;;;;;;8298246;28;27643;-57
2022/05/05 23:06:22;;;;;;;;;;;;;;;;;;8296400;28;27726;-58
2022/05/05 23:10:22;;;;;;;;;;;;;;;;;;8309738;28;29207;-52
2022/05/05 23:14:22;;;;;;;;;;;;;;;;;;8305413;28;27864;-56
2022/05/05 23:18:24;;;;;;;;;;;;;;;;;;8312660;28;48762;-57
2022/05/05 23:22:25;;;;;;;;;;;;;;;;;;8297752;28;27873;-58
2022/05/05 23:26:25;;;;;;;;;;;;;;;;;;8306211;28;27920;-58
2022/05/05 23:30:25;;;;;;;;;;;;;;;;;;8303237;28;27684;-58
2022/05/05 23:38:44;;;;;;;;;;;;;;;;;;8301771;28;27544;-57
2022/05/05 23:42:44;;;;;;;;;;;;;;;;;;8305140;28;27957;-57
2022/05/05 23:46:44;;;;;;;;;;;;;;;;;;8306133;28;28269;-58
2022/05/05 23:50:45;;;;;;;;;;;;;;;;;;8307859;28;27673;-58
2022/05/05 23:54:45;;;;;;;;;;;;;;;;;;8302959;28;27756;-58
2022/05/05 23:58:45;;;;;;;;;;;;;;;;;;8303474;28;27265;-58
